Time;durP1;ratioP1;P1;durP2;ratioP2;P2;SDS_P1;SDS_P2;PMS_P1;PMS_P2;Temp;Humidity;BMP_temperature;BMP_pressure;BME280_temperature;BME280_humidity;BME280_pressure;Samples;Min_cycle;Max_cycle;Signal;HPM_P1;HPM_P2
2023/09/24 00:00:59;;;;;;;11.20;2.78;;;;;;;15.66;62.68;99292.63;5092527;28;20044;-46
2023/09/24 00:03:25;;;;;;;6.25;2.13;;;;;;;15.68;62.64;99285.25;5094089;28;20056;-46
2023/09/24 00:05:55;;;;;;;12.13;2.70;;;;;;;15.61;62.73;99293.25;5093719;28;20536;-46
2023/09/24 00:08:21;;;;;;;4.63;1.75;;;;;;;15.59;63.12;99297.94;5092419;28;20055;-46
2023/09/24 00:10:52;;;;;;;10.27;3.03;;;;;;;15.65;62.94;99294.44;5093964;28;20027;-46
2023/09/24 00:13:18;;;;;;;12.07;2.58;;;;;;;15.71;63.08;99295.41;5093578;28;20077;-46
2023/09/24 00:15:44;;;;;;;8.90;2.13;;;;;;;15.71;62.84;99296.19;5092906;28;20054;-46
2023/09/24 00:18:10;;;;;;;7.30;2.40;;;;;;;15.69;62.95;99300.09;5093408;28;20028;-46
2023/09/24 00:20:36;;;;;;;15.88;2.95;;;;;;;15.78;63.08;99309.41;5093461;28;20024;-46
2023/09/24 00:23:01;;;;;;;6.68;2.38;;;;;;;15.87;62.79;99307.28;5093512;28;20394;-46
2023/09/24 00:25:28;;;;;;;2.75;1.73;;;;;;;15.90;62.46;99315.59;5093331;28;20501;-46
2023/09/24 00:27:56;;;;;;;8.38;2.20;;;;;;;15.82;62.27;99313.25;5093560;28;20400;-46
2023/09/24 00:30:22;;;;;;;10.25;3.13;;;;;;;15.75;62.22;99309.84;5093299;28;20103;-46
2023/09/24 00:32:48;;;;;;;12.57;2.65;;;;;;;15.71;62.82;99311.28;5093512;28;20362;-46
2023/09/24 00:35:15;;;;;;;3.60;2.08;;;;;;;15.68;62.68;99307.22;5093167;28;20134;-46
2023/09/24 00:37:41;;;;;;;8.07;2.60;;;;;;;15.62;62.93;99310.75;5091985;28;20032;-46
2023/09/24 00:40:10;;;;;;;7.18;2.63;;;;;;;15.62;62.90;99307.31;5093394;28;20020;-46
2023/09/24 00:42:37;;;;;;;11.07;3.30;;;;;;;15.65;63.02;99312.16;5093315;28;20024;-46
2023/09/24 00:45:10;;;;;;;6.90;2.00;;;;;;;15.59;62.53;99313.81;5091684;28;20150;-46
2023/09/24 00:47:37;;;;;;;5.35;2.15;;;;;;;15.41;62.54;99322.50;5092949;28;20028;-46
2023/09/24 00:50:08;;;;;;;7.22;2.28;;;;;;;15.24;62.82;99311.69;5092966;28;20035;-46
2023/09/24 00:52:34;;;;;;;11.73;3.33;;;;;;;15.03;63.28;99328.72;5092906;28;20036;-46
2023/09/24 00:55:02;;;;;;;5.28;2.40;;;;;;;14.95;63.99;99313.09;5092854;28;20489;-46
2023/09/24 00:57:28;;;;;;;22.58;3.40;;;;;;;14.87;64.06;99316.81;5093005;28;20034;-46
2023/09/24 00:59:55;;;;;;;11.55;3.08;;;;;;;14.85;64.67;99321.50;5092804;28;20024;-46
2023/09/24 01:02:21;;;;;;;11.30;2.50;;;;;;;14.83;64.32;99325.34;5091649;28;20050;-46
2023/09/24 01:04:49;;;;;;;10.43;2.30;;;;;;;14.74;64.97;99316.88;5091351;28;20118;-46
2023/09/24 01:07:15;;;;;;;5.30;2.13;;;;;;;14.77;65.21;99319.91;5092225;28;20418;-46
2023/09/24 01:09:42;;;;;;;14.88;4.40;;;;;;;14.83;65.66;99312.97;5092595;28;20046;-46
2023/09/24 01:12:21;;;;;;;10.63;2.20;;;;;;;14.80;65.66;99310.75;5092579;28;20093;-46
2023/09/24 01:14:47;;;;;;;10.15;2.50;;;;;;;14.88;70.98;99315.78;5092476;28;20109;-46
2023/09/24 01:17:14;;;;;;;11.35;2.08;;;;;;;14.97;70.29;99316.34;5092427;28;20063;-46
2023/09/24 01:19:40;;;;;;;9.38;1.88;;;;;;;14.64;67.98;99319.97;5092415;28;20031;-46
2023/09/24 01:22:06;;;;;;;5.35;2.03;;;;;;;14.18;67.22;99320.94;5092313;28;20073;-46
2023/09/24 01:24:32;;;;;;;6.30;2.42;;;;;;;13.71;67.59;99313.13;5090975;28;20102;-46
2023/09/24 01:26:57;;;;;;;6.38;2.80;;;;;;;13.33;68.37;99305.03;5091887;28;20024;-46
2023/09/24 01:29:24;;;;;;;4.38;1.85;;;;;;;13.10;69.05;99313.28;5090961;28;20086;-45
2023/09/24 01:31:51;;;;;;;8.60;2.60;;;;;;;12.95;70.14;99310.84;5092220;28;20062;-46
2023/09/24 01:34:18;;;;;;;7.38;2.75;;;;;;;12.85;70.76;99311.22;5092174;28;20028;-46
2023/09/24 01:36:44;;;;;;;12.20;2.55;;;;;;;12.81;70.87;99312.66;5092161;28;20039;-46
2023/09/24 01:39:09;;;;;;;17.00;2.92;;;;;;;12.91;71.87;99315.69;5092159;28;20146;-46
2023/09/24 01:41:35;;;;;;;15.13;3.03;;;;;;;13.12;71.73;99308.63;5090753;28;20024;-46
2023/09/24 01:44:02;;;;;;;22.55;6.78;;;;;;;13.43;71.90;99308.09;5092056;28;20473;-46
2023/09/24 01:46:27;;;;;;;7.07;5.05;;;;;;;13.56;71.04;99310.72;5091923;28;20387;-46
2023/09/24 01:48:54;;;;;;;4.63;1.90;;;;;;;13.63;70.56;99317.81;5090727;28;20024;-46
2023/09/24 01:51:20;;;;;;;15.25;3.10;;;;;;;13.58;70.76;99313.97;5091977;28;20024;-46
2023/09/24 01:53:47;;;;;;;14.60;3.47;;;;;;;13.79;71.28;99309.47;5090672;28;20093;-46
2023/09/24 01:56:17;;;;;;;16.02;3.83;;;;;;;13.98;70.56;99310.44;5092115;28;20458;-46
2023/09/24 01:58:43;;;;;;;13.88;4.15;;;;;;;14.23;70.54;99307.13;5091906;28;20020;-46
2023/09/24 02:01:09;;;;;;;10.32;3.58;;;;;;;14.36;69.52;99305.22;5090524;28;20024;-46
2023/09/24 02:03:35;;;;;;;8.20;2.67;;;;;;;14.44;69.56;99311.31;5090507;28;20020;-46
2023/09/24 02:06:02;;;;;;;10.98;2.88;;;;;;;14.49;68.95;99314.94;5091555;28;20483;-46
2023/09/24 02:08:29;;;;;;;6.05;1.95;;;;;;;14.47;68.49;99311.69;5091691;28;20063;-46
2023/09/24 02:10:55;;;;;;;9.70;2.58;;;;;;;14.31;68.28;99314.81;5091763;28;20028;-46
2023/09/24 02:13:21;;;;;;;5.80;2.25;;;;;;;14.09;68.26;99311.66;5090437;28;20028;-46
2023/09/24 02:15:48;;;;;;;14.93;3.55;;;;;;;13.91;68.67;99312.28;5090372;28;20024;-46
2023/09/24 02:18:14;;;;;;;5.93;2.45;;;;;;;13.86;69.39;99309.44;5091734;28;20042;-46
2023/09/24 02:20:47;;;;;;;4.65;2.08;;;;;;;13.94;69.63;99307.41;5090352;28;20032;-46
2023/09/24 02:23:13;;;;;;;9.68;2.80;;;;;;;14.04;69.29;99296.41;5091724;28;20036;-46
2023/09/24 02:25:39;;;;;;;9.82;3.13;;;;;;;14.05;69.15;99302.53;5091895;28;20024;-46
2023/09/24 02:28:05;;;;;;;9.95;2.85;;;;;;;14.06;69.04;99299.66;5091572;28;20393;-46
2023/09/24 02:30:31;;;;;;;8.20;2.90;;;;;;;14.03;68.88;99302.72;5090287;28;20405;-46
2023/09/24 02:32:58;;;;;;;5.68;2.50;;;;;;;14.00;68.97;99300.47;5090310;28;20028;-46
2023/09/24 02:35:25;;;;;;;11.07;2.65;;;;;;;13.92;68.84;99308.63;5091543;28;20021;-46
2023/09/24 02:37:52;;;;;;;9.32;5.72;;;;;;;13.77;68.91;99301.75;5090251;28;20032;-46
2023/09/24 02:42:48;;;;;;;6.30;2.70;;;;;;;13.68;70.06;99310.91;5095425;28;20032;-46
2023/09/24 02:45:17;;;;;;;9.90;3.25;;;;;;;13.73;69.68;99307.66;5094093;28;20119;-46
2023/09/24 02:47:50;;;;;;;13.73;3.72;;;;;;;13.68;69.66;99324.09;5095287;28;20031;-46
2023/09/24 02:50:21;;;;;;;5.97;2.63;;;;;;;13.64;69.81;99314.16;5093987;28;20028;-46
2023/09/24 02:52:47;;;;;;;10.45;2.92;;;;;;;13.78;70.35;99316.59;5094033;28;20039;-46
2023/09/24 02:55:16;;;;;;;5.30;2.60;;;;;;;13.92;70.30;99304.19;5095182;28;20032;-46
2023/09/24 02:57:44;;;;;;;9.45;3.15;;;;;;;14.03;69.74;99313.28;5093826;28;20517;-46
2023/09/24 03:00:27;;;;;;;8.65;2.72;;;;;;;14.08;69.52;99313.44;5095071;28;20016;-46
2023/09/24 03:02:58;;;;;;;10.90;3.20;;;;;;;14.07;69.20;99317.13;5095197;28;20054;-46
2023/09/24 03:05:24;;;;;;;11.80;2.80;;;;;;;14.09;69.24;99314.28;5093841;28;20486;-46
2023/09/24 03:07:52;;;;;;;7.78;2.80;;;;;;;13.95;69.11;99316.94;5093449;28;20054;-46
2023/09/24 03:10:18;;;;;;;11.05;3.08;;;;;;;13.86;69.69;99325.28;5094943;28;20062;-46
2023/09/24 03:12:45;;;;;;;6.03;2.22;;;;;;;13.78;69.13;99323.66;5095127;28;20046;-46
2023/09/24 03:15:12;;;;;;;4.72;2.53;;;;;;;13.59;68.94;99322.69;5094847;28;20016;-45
2023/09/24 03:17:39;;;;;;;10.45;2.47;;;;;;;13.42;69.45;99327.56;5094768;28;20049;-46
2023/09/24 03:20:15;;;;;;;8.07;3.33;;;;;;;13.35;70.27;99332.00;5093361;28;20024;-46
2023/09/24 03:22:51;;;;;;;6.03;2.70;;;;;;;13.34;70.37;99331.22;5094809;28;20501;-46
2023/09/24 03:25:25;;;;;;;4.45;2.78;;;;;;;13.36;70.81;99326.53;5094589;28;20095;-46
2023/09/24 03:27:53;;;;;;;12.43;3.40;;;;;;;13.38;70.79;99326.31;5094506;28;20486;-46
2023/09/24 03:30:20;;;;;;;6.70;2.60;;;;;;;13.46;70.60;99322.69;5094537;28;20082;-46
2023/09/24 03:32:47;;;;;;;8.55;2.40;;;;;;;13.39;70.35;99320.84;5093152;28;20020;-46
2023/09/24 03:35:15;;;;;;;12.32;3.38;;;;;;;13.36;70.95;99323.06;5093064;28;20025;-46
2023/09/24 03:37:44;;;;;;;4.70;2.50;;;;;;;13.43;71.08;99325.72;5093014;28;20036;-46
2023/09/24 03:40:12;;;;;;;13.80;4.10;;;;;;;13.31;71.13;99321.06;5094273;28;20155;-46
2023/09/24 03:42:39;;;;;;;18.52;3.70;;;;;;;13.25;71.28;99321.84;5094524;28;20031;-45
2023/09/24 03:45:16;;;;;;;11.23;3.08;;;;;;;13.37;71.97;99322.88;5092886;28;20032;-46
2023/09/24 03:47:42;;;;;;;6.05;2.30;;;;;;;13.50;71.89;99316.81;5094092;28;20085;-46
2023/09/24 03:50:13;;;;;;;4.55;2.50;;;;;;;13.58;71.67;99324.50;5094145;28;20112;-46
2023/09/24 03:52:42;;;;;;;10.25;2.92;;;;;;;13.64;71.55;99325.50;5094376;28;20032;-46
2023/09/24 03:55:08;;;;;;;3.90;2.28;;;;;;;13.61;71.51;99328.56;5094266;28;20428;-46
2023/09/24 03:57:35;;;;;;;12.23;3.03;;;;;;;13.67;71.47;99330.38;5094023;28;20109;-45
2023/09/24 04:00:00;;;;;;;5.50;2.85;;;;;;;13.72;71.73;99320.03;5092609;28;20020;-46
2023/09/24 04:02:29;;;;;;;8.70;3.10;;;;;;;13.78;71.80;99321.84;5093897;28;20024;-46
2023/09/24 04:04:55;;;;;;;9.35;2.40;;;;;;;13.73;71.10;99324.28;5093770;28;20397;-46
2023/09/24 04:07:21;;;;;;;14.63;3.78;;;;;;;13.57;70.83;99319.44;5093519;28;20097;-46
2023/09/24 04:09:50;;;;;;;6.22;2.53;;;;;;;13.43;72.05;99326.53;5093750;28;20484;-46
2023/09/24 04:12:16;;;;;;;12.63;3.08;;;;;;;13.61;72.61;99311.94;5093621;28;20020;-46
2023/09/24 04:14:41;;;;;;;8.13;2.80;;;;;;;13.82;72.49;99324.06;5093661;28;20028;-46
2023/09/24 04:17:07;;;;;;;11.07;3.05;;;;;;;13.96;71.82;99326.50;5093569;28;20224;-46
2023/09/24 04:19:33;;;;;;;11.05;3.38;;;;;;;14.11;71.31;99328.09;5092266;28;20035;-46
2023/09/24 04:21:59;;;;;;;4.75;2.85;;;;;;;14.11;70.75;99323.59;5092222;28;20020;-46
2023/09/24 04:24:26;;;;;;;9.57;3.42;;;;;;;14.11;70.70;99325.44;5092136;28;20027;-46
2023/09/24 04:26:53;;;;;;;15.40;3.40;;;;;;;14.12;71.08;99330.50;5092131;28;20367;-46
2023/09/24 04:29:19;;;;;;;9.50;2.78;;;;;;;14.12;70.88;99330.50;5093265;28;20039;-46
2023/09/24 04:31:45;;;;;;;6.40;2.20;;;;;;;14.09;69.92;99338.84;5092039;28;20028;-46
2023/09/24 04:34:12;;;;;;;8.70;2.65;;;;;;;13.87;70.14;99337.47;5092056;28;20516;-46
2023/09/24 04:36:42;;;;;;;9.10;3.25;;;;;;;13.61;70.44;99336.47;5093191;28;20020;-46
2023/09/24 04:39:12;;;;;;;21.00;4.03;;;;;;;13.33;70.63;99340.13;5093109;28;20016;-46
2023/09/24 04:41:40;;;;;;;7.38;3.05;;;;;;;13.28;71.17;99345.16;5093360;28;20020;-46
2023/09/24 04:44:09;;;;;;;8.13;2.63;;;;;;;13.21;70.58;99344.34;5091765;28;20038;-46
2023/09/24 04:46:35;;;;;;;11.88;2.92;;;;;;;12.99;70.72;99344.50;5091613;28;20039;-46
2023/09/24 04:49:02;;;;;;;6.47;2.13;;;;;;;12.93;70.89;99347.94;5093036;28;20023;-46
2023/09/24 04:51:29;;;;;;;10.30;3.05;;;;;;;12.76;70.97;99349.31;5092962;28;20027;-46
2023/09/24 04:53:54;;;;;;;5.82;2.40;;;;;;;12.61;71.17;99351.28;5092907;28;20497;-46
2023/09/24 04:56:20;;;;;;;11.95;2.60;;;;;;;12.42;71.76;99364.16;5091529;28;20028;-46
2023/09/24 04:58:46;;;;;;;18.02;3.75;;;;;;;12.47;73.53;99359.13;5091506;28;20404;-46
2023/09/24 05:01:12;;;;;;;9.60;2.92;;;;;;;12.63;73.70;99362.44;5091417;28;20400;-46
2023/09/24 05:03:38;;;;;;;15.90;3.47;;;;;;;12.89;73.77;99356.44;5090851;28;20074;-46
2023/09/24 05:06:04;;;;;;;12.95;3.22;;;;;;;13.01;73.09;99356.69;5092506;28;20048;-46
2023/09/24 05:08:32;;;;;;;20.70;4.82;;;;;;;13.18;73.27;99365.84;5092648;28;20024;-46
2023/09/24 05:10:58;;;;;;;20.20;7.05;;;;;;;13.43;72.90;99357.38;5092604;28;20397;-46
2023/09/24 05:13:24;;;;;;;11.45;2.53;;;;;;;13.53;71.99;99363.06;5091226;28;20035;-46
2023/09/24 05:15:53;;;;;;;8.88;3.42;;;;;;;13.69;71.65;99369.75;5091209;28;20032;-46
2023/09/24 05:18:21;;;;;;;13.88;3.70;;;;;;;13.85;71.72;99368.53;5092712;28;20028;-46
2023/09/24 05:20:47;;;;;;;11.43;4.68;;;;;;;14.07;71.39;99364.63;5092401;28;20031;-46
2023/09/24 05:23:13;;;;;;;15.48;4.38;;;;;;;14.24;70.92;99361.53;5091054;28;20028;-46
2023/09/24 05:25:39;;;;;;;5.47;3.25;;;;;;;14.32;70.58;99356.03;5092359;28;20512;-46
2023/09/24 05:28:05;;;;;;;10.00;3.90;;;;;;;14.34;70.46;99364.56;5090903;28;20024;-46
2023/09/24 05:30:30;;;;;;;19.17;5.22;;;;;;;14.42;70.50;99359.03;5092292;28;20501;-46
2023/09/24 05:32:56;;;;;;;18.25;4.95;;;;;;;14.53;69.93;99363.69;5090968;28;20042;-45
2023/09/24 05:35:22;;;;;;;8.52;4.30;;;;;;;14.45;70.40;99361.28;5092156;28;20379;-46
2023/09/24 05:37:48;;;;;;;6.00;4.20;;;;;;;14.55;70.65;99361.66;5090857;28;20031;-46
2023/09/24 05:40:14;;;;;;;12.38;4.78;;;;;;;14.60;70.25;99365.53;5090796;28;20480;-45
2023/09/24 05:42:42;;;;;;;20.05;4.60;;;;;;;14.68;70.30;99370.56;5092055;28;20028;-46
2023/09/24 05:45:09;;;;;;;17.90;5.30;;;;;;;14.73;70.20;99365.47;5092019;28;20020;-46
2023/09/24 05:47:34;;;;;;;37.00;25.45;;;;;;;14.61;70.06;99373.25;5091998;28;20141;-46
2023/09/24 05:50:02;;;;;;;14.68;13.07;;;;;;;14.54;70.13;99381.13;5092040;28;20020;-46
2023/09/24 05:52:29;;;;;;;12.45;5.47;;;;;;;14.55;70.27;99380.13;5091971;28;20024;-46
2023/09/24 05:54:55;;;;;;;9.20;3.88;;;;;;;14.60;69.85;99384.81;5090591;28;20043;-46
2023/09/24 05:57:21;;;;;;;17.05;5.53;;;;;;;14.47;69.42;99384.84;5090610;28;20028;-46
2023/09/24 05:59:47;;;;;;;14.60;4.78;;;;;;;14.29;70.26;99393.44;5091825;28;20099;-46
2023/09/24 06:02:12;;;;;;;8.40;4.75;;;;;;;14.45;70.93;99392.16;5091842;28;20052;-46
2023/09/24 06:04:38;;;;;;;5.50;4.40;;;;;;;14.64;70.48;99386.00;5091833;28;20027;-46
2023/09/24 06:07:05;;;;;;;11.50;4.78;;;;;;;14.72;70.17;99392.91;5091468;28;20055;-46
2023/09/24 06:09:31;;;;;;;20.17;5.35;;;;;;;14.83;70.03;99394.06;5091815;28;20103;-46
2023/09/24 06:11:57;;;;;;;15.02;5.45;;;;;;;14.94;69.76;99396.06;5091827;28;20405;-46
2023/09/24 06:14:22;;;;;;;5.55;4.43;;;;;;;14.93;68.79;99397.91;5092615;28;20023;-46
2023/09/24 06:16:48;;;;;;;9.65;4.05;;;;;;;14.84;68.59;99400.97;5094607;28;20485;-46
2023/09/24 06:19:14;;;;;;;6.38;3.97;;;;;;;14.82;68.44;99408.31;5094585;28;20031;-46
2023/09/24 06:21:39;;;;;;;17.88;4.30;;;;;;;14.86;68.85;99399.75;5094519;28;20054;-46
2023/09/24 06:24:06;;;;;;;14.35;4.63;;;;;;;15.01;68.18;99398.66;5094464;28;20382;-46
2023/09/24 06:26:32;;;;;;;5.95;3.67;;;;;;;15.15;68.32;99392.28;5095639;28;20071;-46
2023/09/24 06:28:57;;;;;;;10.25;4.07;;;;;;;15.28;68.09;99396.69;5094405;28;20020;-46
2023/09/24 06:31:23;;;;;;;13.18;4.68;;;;;;;15.41;67.83;99396.56;5095669;28;20141;-46
2023/09/24 06:33:49;;;;;;;8.30;3.30;;;;;;;15.53;67.14;99394.06;5095656;28;20022;-46
2023/09/24 06:36:16;;;;;;;5.53;3.53;;;;;;;15.57;66.15;99403.19;5095785;28;20065;-46
2023/09/24 06:38:44;;;;;;;7.30;3.92;;;;;;;15.31;65.85;99405.00;5077349;28;20024;-46
2023/09/24 06:41:09;;;;;;;6.95;3.67;;;;;;;15.04;66.40;99403.53;5095678;28;20111;-46
2023/09/24 06:43:35;;;;;;;10.93;4.60;;;;;;;15.01;67.09;99403.94;5095373;28;20425;-46
2023/09/24 06:46:06;;;;;;;7.13;3.78;;;;;;;15.08;66.58;99399.44;5095333;28;20023;-46
2023/09/24 06:48:32;;;;;;;9.68;4.43;;;;;;;15.16;67.29;99400.00;5095251;28;20024;-46
2023/09/24 06:51:06;;;;;;;6.53;4.13;;;;;;;15.54;66.82;99399.13;5095226;28;20028;-46
2023/09/24 06:53:32;;;;;;;6.82;3.63;;;;;;;15.93;65.97;99394.56;5094066;28;20028;-46
2023/09/24 06:55:57;;;;;;;4.82;3.58;;;;;;;16.23;65.24;99403.66;5093821;28;20034;-46
2023/09/24 06:58:23;;;;;;;4.80;3.20;;;;;;;16.32;63.45;99402.38;5095203;28;20047;-46
2023/09/24 07:00:49;;;;;;;6.40;3.03;;;;;;;16.50;62.68;99412.13;5095092;28;20051;-46
2023/09/24 07:03:14;;;;;;;9.65;3.30;;;;;;;16.53;61.89;99420.44;5093713;28;20024;-46
2023/09/24 07:05:40;;;;;;;8.32;3.13;;;;;;;16.20;61.83;99418.16;5093512;28;20486;-49
2023/09/24 07:08:06;;;;;;;9.98;3.08;;;;;;;15.87;62.09;99416.63;5076641;28;20089;-46
2023/09/24 07:10:32;;;;;;;6.25;3.65;;;;;;;15.65;63.24;99407.41;5093602;28;20026;-46
2023/09/24 07:12:57;;;;;;;5.30;2.80;;;;;;;15.57;64.10;99411.94;5093589;28;20020;-46
2023/09/24 07:15:23;;;;;;;5.03;2.90;;;;;;;15.78;63.68;99418.72;5093608;28;20160;-46
2023/09/24 07:17:49;;;;;;;10.70;3.42;;;;;;;16.08;63.62;99417.28;5094800;28;20028;-47
2023/09/24 07:20:14;;;;;;;8.45;3.20;;;;;;;16.51;61.56;99409.25;5094742;28;20509;-46
2023/09/24 07:22:40;;;;;;;8.05;3.05;;;;;;;16.85;61.22;99420.31;5093372;28;20111;-46
2023/09/24 07:25:06;;;;;;;7.55;3.40;;;;;;;16.87;59.60;99420.91;5092696;28;20397;-46
2023/09/24 07:27:32;;;;;;;4.07;2.60;;;;;;;16.79;60.01;99426.47;5094546;28;20104;-46
2023/09/24 07:29:59;;;;;;;3.75;2.30;;;;;;;16.98;59.09;99427.28;5093219;28;20028;-46
2023/09/24 07:32:25;;;;;;;4.97;2.67;;;;;;;16.64;59.11;99434.00;5094762;28;20069;-46
2023/09/24 07:34:50;;;;;;;7.32;2.45;;;;;;;16.47;60.33;99429.28;5093199;28;20024;-46
2023/09/24 07:37:16;;;;;;;8.48;2.83;;;;;;;16.65;59.96;99436.44;5093020;28;20020;-46
2023/09/24 07:39:42;;;;;;;5.28;2.60;;;;;;;16.72;59.39;99436.34;5093114;28;20021;-46
2023/09/24 07:42:08;;;;;;;18.25;3.28;;;;;;;16.95;59.86;99428.56;5094314;28;20415;-46
2023/09/24 07:44:33;;;;;;;8.40;3.42;;;;;;;17.24;59.11;99431.44;5094338;28;20362;-46
2023/09/24 07:46:59;;;;;;;9.27;3.10;;;;;;;17.43;58.22;99434.06;5094162;28;20390;-46
2023/09/24 07:49:25;;;;;;;14.95;3.25;;;;;;;17.46;57.82;99434.38;5092859;28;20051;-46
2023/09/24 07:51:50;;;;;;;20.25;4.95;;;;;;;17.47;57.49;99432.56;5092973;28;20031;-46
2023/09/24 07:54:17;;;;;;;15.15;3.83;;;;;;;17.46;57.50;99433.59;5093252;28;20031;-46
2023/09/24 07:56:43;;;;;;;9.75;4.38;;;;;;;17.52;57.43;99427.38;5092774;28;20032;-46
2023/09/24 07:59:10;;;;;;;5.47;3.92;;;;;;;17.82;56.92;99423.84;5093047;28;20032;-46
2023/09/24 08:01:35;;;;;;;3.28;2.75;;;;;;;18.54;55.25;99413.00;5092670;28;20027;-46
2023/09/24 08:04:01;;;;;;;4.45;2.50;;;;;;;18.84;54.15;99409.34;5093873;28;20020;-46
2023/09/24 08:06:28;;;;;;;4.38;2.45;;;;;;;19.05;53.34;99423.84;5092369;28;20123;-46
2023/09/24 08:08:55;;;;;;;7.57;3.03;;;;;;;19.52;52.81;99420.97;5093741;28;20077;-46
2023/09/24 08:11:21;;;;;;;10.30;3.45;;;;;;;19.93;51.14;99414.44;5093817;28;20555;-46
2023/09/24 08:13:47;;;;;;;25.95;4.03;;;;;;;20.01;50.42;99415.09;5092403;28;20058;-44
2023/09/24 08:16:13;;;;;;;7.60;2.60;;;;;;;19.81;50.62;99415.59;5092319;28;20036;-44
2023/09/24 08:18:40;;;;;;;4.05;2.80;;;;;;;21.48;48.23;99411.78;5093888;28;20024;-44
2023/09/24 08:21:06;;;;;;;10.88;2.42;;;;;;;23.07;44.15;99408.13;5093435;28;20031;-44
2023/09/24 08:23:32;;;;;;;10.18;2.65;;;;;;;24.24;41.09;99409.19;5093548;28;20013;-45
2023/09/24 08:26:00;;;;;;;3.65;1.80;;;;;;;23.96;40.71;99397.19;5093364;28;20108;-44
2023/09/24 08:28:25;;;;;;;4.90;2.20;;;;;;;23.79;40.07;99394.81;5093343;28;20031;-44
2023/09/24 08:30:51;;;;;;;7.03;2.40;;;;;;;23.87;40.15;99407.66;5092127;28;20024;-45
2023/09/24 08:33:17;;;;;;;7.53;2.53;;;;;;;24.58;38.77;99411.25;5092162;28;20031;-45
2023/09/24 08:35:43;;;;;;;7.72;2.00;;;;;;;24.58;38.78;99419.31;5091958;28;20036;-44
2023/09/24 08:38:09;;;;;;;9.00;2.35;;;;;;;24.79;38.41;99406.59;5090949;28;20024;-44
2023/09/24 08:40:35;;;;;;;8.10;2.08;;;;;;;24.56;38.67;99412.59;5093202;28;20264;-46
2023/09/24 08:43:08;;;;;;;7.97;2.35;;;;;;;25.39;37.16;99403.81;5093380;28;20068;-44
2023/09/24 08:45:34;;;;;;;5.38;1.92;;;;;;;25.73;36.64;99399.50;5093140;28;20032;-44
2023/09/24 08:48:07;;;;;;;1.95;1.42;;;;;;;26.34;34.80;99396.22;5092998;28;20016;-44
2023/09/24 08:50:36;;;;;;;9.52;2.50;;;;;;;24.69;37.18;99402.09;5093035;28;20073;-44
2023/09/24 08:53:05;;;;;;;13.85;2.72;;;;;;;23.93;38.71;99395.06;5075244;28;20569;-44
2023/09/24 08:55:31;;;;;;;9.00;2.08;;;;;;;23.72;38.91;99404.97;5092843;28;20028;-44
2023/09/24 08:57:57;;;;;;;19.33;6.65;;;;;;;24.60;38.68;99397.56;5093128;28;20039;-44
2023/09/24 09:00:23;;;;;;;2.72;2.20;;;;;;;25.49;36.92;99402.94;5091467;28;20397;-44
2023/09/24 09:02:48;;;;;;;4.72;2.00;;;;;;;26.57;34.60;99399.19;5091494;28;20137;-45
2023/09/24 09:05:25;;;;;;;4.95;1.60;;;;;;;27.36;33.94;99382.47;5092743;28;20040;-45
2023/09/24 09:07:59;;;;;;;6.82;2.42;;;;;;;27.81;32.36;99385.47;5091151;28;20051;-45
2023/09/24 09:10:27;;;;;;;13.77;3.30;;;;;;;28.02;32.20;99380.53;5091315;28;20039;-45
2023/09/24 09:13:08;;;;;;;12.98;2.53;;;;;;;28.54;31.14;99389.25;5092646;28;20024;-44
2023/09/24 09:15:35;;;;;;;12.55;3.45;;;;;;;28.83;30.65;99390.78;5092628;28;20028;-45
2023/09/24 09:18:02;;;;;;;4.55;1.58;;;;;;;29.13;30.69;99377.72;5091468;28;20032;-44
2023/09/24 09:20:48;;;;;;;5.18;1.55;;;;;;;28.88;30.92;99372.56;5091207;28;20510;-45
2023/09/24 09:23:15;;;;;;;8.88;1.90;;;;;;;28.67;30.30;99374.13;5091134;28;20059;-44
2023/09/24 09:25:53;;;;;;;7.03;1.65;;;;;;;28.92;30.34;99374.66;5091161;28;20049;-45
2023/09/24 09:28:21;;;;;;;2.08;1.13;;;;;;;29.04;29.91;99364.91;5091082;28;20103;-44
2023/09/24 09:31:04;;;;;;;9.38;2.05;;;;;;;29.02;30.06;99359.00;5090929;28;20032;-45
2023/09/24 09:33:32;;;;;;;9.18;1.75;;;;;;;28.96;29.89;99362.13;5092227;28;20050;-45
2023/09/24 09:35:58;;;;;;;4.95;1.48;;;;;;;28.40;29.99;99358.75;5092135;28;20060;-45
2023/09/24 09:38:26;;;;;;;5.43;1.30;;;;;;;27.76;31.59;99353.22;5090999;28;20052;-45
2023/09/24 09:40:59;;;;;;;6.82;1.98;;;;;;;27.78;31.53;99356.41;5092142;28;20103;-45
2023/09/24 09:43:27;;;;;;;2.70;1.52;;;;;;;28.17;31.23;99352.44;5090826;28;20028;-45
2023/09/24 09:45:54;;;;;;;11.43;2.08;;;;;;;28.55;30.66;99355.72;5092080;28;20541;-45
2023/09/24 09:48:31;;;;;;;12.13;2.25;;;;;;;28.86;30.43;99347.75;5090469;28;20024;-45
2023/09/24 09:51:01;;;;;;;3.53;1.67;;;;;;;29.42;29.22;99345.63;5091963;28;20074;-44
2023/09/24 09:53:34;;;;;;;31.08;20.85;;;;;;;29.79;29.32;99348.22;5074442;28;20020;-45
2023/09/24 09:56:08;;;;;;;56.53;13.98;;;;;;;30.32;28.74;99341.88;5091959;28;20036;-45
2023/09/24 09:58:36;;;;;;;6.70;1.83;;;;;;;30.25;27.92;99339.63;5092030;28;20028;-45
2023/09/24 10:01:03;;;;;;;11.90;2.80;;;;;;;30.11;28.46;99324.63;5091832;28;20489;-45
2023/09/24 10:03:32;;;;;;;4.82;1.70;;;;;;;30.23;28.36;99327.50;5091928;28;20420;-45
2023/09/24 10:06:00;;;;;;;5.10;1.80;;;;;;;30.46;27.58;99326.31;5091579;28;20412;-45
2023/09/24 10:08:39;;;;;;;3.28;1.75;;;;;;;30.88;27.47;99328.56;5073836;28;20063;-45
2023/09/24 10:11:05;;;;;;;9.82;2.05;;;;;;;31.15;27.07;99329.31;5090597;28;20043;-45
2023/09/24 10:13:44;;;;;;;15.73;2.83;;;;;;;31.31;27.50;99322.28;5090471;28;20126;-45
2023/09/24 10:16:32;;;;;;;10.38;1.90;;;;;;;31.46;27.17;99318.28;5090395;28;20139;-45
2023/09/24 10:19:11;;;;;;;5.80;1.88;;;;;;;31.36;26.39;99308.53;5090503;28;20024;-45
2023/09/24 10:21:44;;;;;;;13.07;1.98;;;;;;;31.63;26.50;99306.56;5091698;28;20112;-45
2023/09/24 10:24:35;;;;;;;11.20;2.50;;;;;;;31.80;26.35;99309.22;5090420;28;20081;-45
2023/09/24 10:27:02;;;;;;;11.45;2.42;;;;;;;32.06;26.15;99307.53;5091549;28;20047;-45
2023/09/24 10:29:46;;;;;;;17.75;2.97;;;;;;;31.96;26.43;99300.53;5091580;28;20032;-45
2023/09/24 10:32:12;;;;;;;16.17;2.70;;;;;;;31.80;25.82;99303.78;5091592;28;20085;-45
2023/09/24 10:34:53;;;;;;;3.42;1.48;;;;;;;31.82;26.07;99298.03;5091608;28;20020;-45
2023/09/24 10:37:21;;;;;;;2.90;1.67;;;;;;;31.74;25.28;99290.72;5090278;28;20036;-45
2023/09/24 10:40:04;;;;;;;16.15;2.58;;;;;;;31.51;26.65;99293.72;5091493;28;20499;-45
2023/09/24 10:42:31;;;;;;;9.43;2.17;;;;;;;31.62;26.53;99283.28;5091543;28;20093;-45
2023/09/24 10:45:06;;;;;;;4.53;1.88;;;;;;;31.92;26.24;99281.38;5091720;28;20046;-45
2023/09/24 10:47:38;;;;;;;9.45;1.90;;;;;;;32.23;26.19;99280.22;5091399;28;20036;-45
2023/09/24 10:50:12;;;;;;;8.25;2.67;;;;;;;32.18;25.90;99283.94;5091488;28;20509;-45
2023/09/24 10:52:53;;;;;;;;;;;;;;;32.21;26.33;99279.78;5091848;28;20032;-46
2023/09/24 10:55:34;;;;;;;21.80;2.75;;;;;;;32.27;25.72;99281.16;5090068;28;19911;-45
2023/09/24 10:58:05;;;;;;;12.27;2.15;;;;;;;32.08;25.63;99283.56;5090100;28;20036;-45
2023/09/24 11:00:34;;;;;;;3.45;1.17;;;;;;;31.87;25.60;99276.13;5092579;28;20020;-45
2023/09/24 11:03:02;;;;;;;3.25;1.25;;;;;;;32.01;25.11;99271.25;5095114;28;20090;-45
2023/09/24 11:05:30;;;;;;;3.95;1.50;;;;;;;32.09;24.69;99276.97;5095311;28;20382;-45
2023/09/24 11:07:56;;;;;;;7.70;2.13;;;;;;;32.21;25.23;99277.06;5093306;28;20100;-45
2023/09/24 11:10:27;;;;;;;2.33;1.27;;;;;;;32.16;24.99;99275.34;5093620;28;20016;-45
2023/09/24 11:13:01;;;;;;;5.22;1.42;;;;;;;32.15;24.88;99272.94;5093619;28;20024;-45
2023/09/24 11:15:38;;;;;;;3.13;1.73;;;;;;;32.26;24.72;99268.72;5094866;28;20032;-46
2023/09/24 11:18:05;;;;;;;15.27;3.30;;;;;;;32.11;25.40;99261.16;5094842;28;20498;-45
2023/09/24 11:20:32;;;;;;;3.65;1.40;;;;;;;32.08;25.20;99253.69;5094786;28;20032;-45
2023/09/24 11:22:59;;;;;;;9.60;2.15;;;;;;;31.99;25.04;99249.03;5093529;28;20048;-45
2023/09/24 11:25:26;;;;;;;7.95;2.00;;;;;;;32.03;24.88;99243.78;5094655;28;20543;-45
2023/09/24 11:27:54;;;;;;;4.15;1.98;;;;;;;31.94;24.75;99238.41;5094526;28;20035;-45
2023/09/24 11:30:22;;;;;;;6.72;1.85;;;;;;;32.06;24.71;99243.13;5093233;28;20146;-45
2023/09/24 11:32:50;;;;;;;13.38;2.85;;;;;;;31.83;25.24;99239.88;5093423;28;20043;-45
2023/09/24 11:35:18;;;;;;;18.80;2.67;;;;;;;31.63;25.30;99234.09;5093137;28;20432;-45